sensor_id;sensor_type;location;lat;lon;timestamp;P1;durP1;ratioP1;P2;durP2;ratioP2
34924;SDS011;21130;51.728;8.748;2023-01-04T00:02:13;4.35;;;1.30;;
34924;SDS011;21130;51.728;8.748;2023-01-04T00:04:39;4.05;;;1.48;;
34924;SDS011;21130;51.728;8.748;2023-01-04T00:07:05;5.97;;;1.20;;
34924;SDS011;21130;51.728;8.748;2023-01-04T00:09:32;2.53;;;1.35;;
34924;SDS011;21130;51.728;8.748;2023-01-04T00:11:58;5.03;;;1.42;;
34924;SDS011;21130;51.728;8.748;2023-01-04T00:14:26;3.50;;;1.50;;
34924;SDS011;21130;51.728;8.748;2023-01-04T00:16:53;2.47;;;1.35;;
34924;SDS011;21130;51.728;8.748;2023-01-04T00:19:19;3.75;;;1.10;;
34924;SDS011;21130;51.728;8.748;2023-01-04T00:21:46;3.25;;;1.30;;
34924;SDS011;21130;51.728;8.748;2023-01-04T00:24:12;4.68;;;1.70;;
34924;SDS011;21130;51.728;8.748;2023-01-04T00:26:39;5.43;;;1.50;;
34924;SDS011;21130;51.728;8.748;2023-01-04T00:29:06;7.03;;;2.53;;
34924;SDS011;21130;51.728;8.748;2023-01-04T00:31:34;2.70;;;1.45;;
34924;SDS011;21130;51.728;8.748;2023-01-04T00:34:01;3.40;;;1.42;;
34924;SDS011;21130;51.728;8.748;2023-01-04T00:36:29;6.20;;;1.77;;
34924;SDS011;21130;51.728;8.748;2023-01-04T00:38:57;5.20;;;2.20;;
34924;SDS011;21130;51.728;8.748;2023-01-04T00:41:37;8.15;;;3.78;;
34924;SDS011;21130;51.728;8.748;2023-01-04T00:44:06;7.20;;;2.38;;
34924;SDS011;21130;51.728;8.748;2023-01-04T00:46:36;5.10;;;2.08;;
34924;SDS011;21130;51.728;8.748;2023-01-04T00:49:03;2.78;;;1.52;;
34924;SDS011;21130;51.728;8.748;2023-01-04T00:51:31;3.70;;;1.52;;
34924;SDS011;21130;51.728;8.748;2023-01-04T00:53:59;4.97;;;1.95;;
34924;SDS011;21130;51.728;8.748;2023-01-04T00:56:27;5.32;;;1.20;;
34924;SDS011;21130;51.728;8.748;2023-01-04T00:58:54;4.78;;;1.88;;
34924;SDS011;21130;51.728;8.748;2023-01-04T01:01:21;4.32;;;1.60;;
34924;SDS011;21130;51.728;8.748;2023-01-04T01:03:50;2.90;;;1.40;;
34924;SDS011;21130;51.728;8.748;2023-01-04T01:06:17;3.63;;;1.42;;
34924;SDS011;21130;51.728;8.748;2023-01-04T01:08:44;2.40;;;1.30;;
34924;SDS011;21130;51.728;8.748;2023-01-04T01:11:10;5.20;;;1.60;;
34924;SDS011;21130;51.728;8.748;2023-01-04T01:13:38;4.07;;;1.48;;
34924;SDS011;21130;51.728;8.748;2023-01-04T01:16:05;5.78;;;1.80;;
34924;SDS011;21130;51.728;8.748;2023-01-04T01:18:33;3.55;;;1.52;;
34924;SDS011;21130;51.728;8.748;2023-01-04T01:21:04;5.70;;;2.22;;
34924;SDS011;21130;51.728;8.748;2023-01-04T01:23:31;3.75;;;1.85;;
34924;SDS011;21130;51.728;8.748;2023-01-04T01:26:15;5.05;;;2.70;;
34924;SDS011;21130;51.728;8.748;2023-01-04T01:28:43;5.60;;;2.10;;
34924;SDS011;21130;51.728;8.748;2023-01-04T01:31:11;5.63;;;2.25;;
34924;SDS011;21130;51.728;8.748;2023-01-04T01:33:39;7.22;;;2.15;;
34924;SDS011;21130;51.728;8.748;2023-01-04T01:36:08;5.10;;;1.63;;
34924;SDS011;21130;51.728;8.748;2023-01-04T01:38:36;3.33;;;1.63;;
34924;SDS011;21130;51.728;8.748;2023-01-04T01:41:03;6.68;;;1.80;;
34924;SDS011;21130;51.728;8.748;2023-01-04T01:43:51;4.30;;;1.40;;
34924;SDS011;21130;51.728;8.748;2023-01-04T01:46:21;2.10;;;1.40;;
34924;SDS011;21130;51.728;8.748;2023-01-04T01:48:52;6.68;;;2.10;;
34924;SDS011;21130;51.728;8.748;2023-01-04T01:51:22;4.00;;;1.90;;
34924;SDS011;21130;51.728;8.748;2023-01-04T01:53:51;3.80;;;1.77;;
34924;SDS011;21130;51.728;8.748;2023-01-04T01:56:23;4.75;;;1.60;;
34924;SDS011;21130;51.728;8.748;2023-01-04T01:58:54;3.95;;;2.22;;
34924;SDS011;21130;51.728;8.748;2023-01-04T02:01:23;4.18;;;2.00;;
34924;SDS011;21130;51.728;8.748;2023-01-04T02:03:50;5.50;;;3.15;;
34924;SDS011;21130;51.728;8.748;2023-01-04T02:06:17;6.32;;;2.40;;
34924;SDS011;21130;51.728;8.748;2023-01-04T02:08:50;2.90;;;1.20;;
34924;SDS011;21130;51.728;8.748;2023-01-04T02:11:17;3.85;;;1.70;;
34924;SDS011;21130;51.728;8.748;2023-01-04T02:13:43;6.05;;;2.17;;
34924;SDS011;21130;51.728;8.748;2023-01-04T02:16:39;4.35;;;1.50;;
34924;SDS011;21130;51.728;8.748;2023-01-04T02:19:20;4.47;;;1.48;;
34924;SDS011;21130;51.728;8.748;2023-01-04T02:22:10;4.22;;;1.58;;
34924;SDS011;21130;51.728;8.748;2023-01-04T02:24:57;3.40;;;2.25;;
34924;SDS011;21130;51.728;8.748;2023-01-04T02:27:45;2.78;;;1.40;;
34924;SDS011;21130;51.728;8.748;2023-01-04T02:30:23;4.13;;;1.35;;
34924;SDS011;21130;51.728;8.748;2023-01-04T02:33:13;4.22;;;1.92;;
34924;SDS011;21130;51.728;8.748;2023-01-04T02:35:54;3.80;;;1.33;;
34924;SDS011;21130;51.728;8.748;2023-01-04T02:38:26;3.20;;;1.50;;
34924;SDS011;21130;51.728;8.748;2023-01-04T02:40:56;3.63;;;1.70;;
34924;SDS011;21130;51.728;8.748;2023-01-04T02:43:29;4.18;;;1.17;;
34924;SDS011;21130;51.728;8.748;2023-01-04T02:46:21;4.88;;;1.60;;
34924;SDS011;21130;51.728;8.748;2023-01-04T02:48:53;2.92;;;1.80;;
34924;SDS011;21130;51.728;8.748;2023-01-04T02:51:37;2.88;;;1.50;;
34924;SDS011;21130;51.728;8.748;2023-01-04T02:54:05;4.30;;;1.55;;
34924;SDS011;21130;51.728;8.748;2023-01-04T02:56:39;4.20;;;1.50;;
34924;SDS011;21130;51.728;8.748;2023-01-04T02:59:33;4.35;;;1.67;;
34924;SDS011;21130;51.728;8.748;2023-01-04T03:02:21;5.07;;;1.50;;
34924;SDS011;21130;51.728;8.748;2023-01-04T03:05:19;3.78;;;1.52;;
34924;SDS011;21130;51.728;8.748;2023-01-04T03:08:16;5.82;;;1.30;;
34924;SDS011;21130;51.728;8.748;2023-01-04T03:10:52;3.35;;;1.20;;
34924;SDS011;21130;51.728;8.748;2023-01-04T03:13:24;3.70;;;1.27;;
34924;SDS011;21130;51.728;8.748;2023-01-04T03:15:54;3.47;;;1.70;;
34924;SDS011;21130;51.728;8.748;2023-01-04T03:18:25;3.55;;;1.40;;
34924;SDS011;21130;51.728;8.748;2023-01-04T03:20:55;4.63;;;1.45;;
34924;SDS011;21130;51.728;8.748;2023-01-04T03:23:25;4.28;;;1.30;;
34924;SDS011;21130;51.728;8.748;2023-01-04T03:26:14;4.35;;;1.30;;
34924;SDS011;21130;51.728;8.748;2023-01-04T03:29:02;4.35;;;1.20;;
34924;SDS011;21130;51.728;8.748;2023-01-04T03:31:53;4.03;;;1.17;;
34924;SDS011;21130;51.728;8.748;2023-01-04T03:34:45;5.00;;;1.85;;
34924;SDS011;21130;51.728;8.748;2023-01-04T03:37:31;2.40;;;1.33;;
34924;SDS011;21130;51.728;8.748;2023-01-04T03:40:09;6.13;;;1.30;;
34924;SDS011;21130;51.728;8.748;2023-01-04T03:43:02;2.75;;;1.15;;
34924;SDS011;21130;51.728;8.748;2023-01-04T03:45:53;3.20;;;1.10;;
34924;SDS011;21130;51.728;8.748;2023-01-04T03:48:42;4.97;;;1.80;;
34924;SDS011;21130;51.728;8.748;2023-01-04T03:51:14;2.28;;;1.10;;
34924;SDS011;21130;51.728;8.748;2023-01-04T03:53:49;3.65;;;1.40;;
34924;SDS011;21130;51.728;8.748;2023-01-04T03:56:21;4.40;;;1.10;;
34924;SDS011;21130;51.728;8.748;2023-01-04T03:58:49;1.92;;;1.17;;
34924;SDS011;21130;51.728;8.748;2023-01-04T04:01:18;3.75;;;1.08;;
34924;SDS011;21130;51.728;8.748;2023-01-04T04:03:46;1.92;;;1.00;;
34924;SDS011;21130;51.728;8.748;2023-01-04T04:06:30;2.75;;;1.35;;
34924;SDS011;21130;51.728;8.748;2023-01-04T04:09:15;2.60;;;1.17;;
34924;SDS011;21130;51.728;8.748;2023-01-04T04:11:41;1.88;;;1.00;;
34924;SDS011;21130;51.728;8.748;2023-01-04T04:14:08;2.80;;;1.10;;
34924;SDS011;21130;51.728;8.748;2023-01-04T04:16:34;2.17;;;0.80;;
34924;SDS011;21130;51.728;8.748;2023-01-04T04:19:01;2.03;;;1.10;;
34924;SDS011;21130;51.728;8.748;2023-01-04T04:21:27;1.58;;;0.70;;
34924;SDS011;21130;51.728;8.748;2023-01-04T04:23:53;1.70;;;0.85;;
34924;SDS011;21130;51.728;8.748;2023-01-04T04:26:22;2.60;;;0.98;;
34924;SDS011;21130;51.728;8.748;2023-01-04T04:28:50;3.00;;;1.35;;
34924;SDS011;21130;51.728;8.748;2023-01-04T04:31:16;3.22;;;0.98;;
34924;SDS011;21130;51.728;8.748;2023-01-04T04:33:43;2.25;;;0.90;;
34924;SDS011;21130;51.728;8.748;2023-01-04T04:36:09;0.80;;;0.70;;
34924;SDS011;21130;51.728;8.748;2023-01-04T04:38:36;1.85;;;1.00;;
34924;SDS011;21130;51.728;8.748;2023-01-04T04:41:06;1.10;;;0.77;;
34924;SDS011;21130;51.728;8.748;2023-01-04T04:43:53;2.63;;;0.77;;
34924;SDS011;21130;51.728;8.748;2023-01-04T04:46:20;3.50;;;0.90;;
34924;SDS011;21130;51.728;8.748;2023-01-04T04:48:46;2.35;;;0.88;;
34924;SDS011;21130;51.728;8.748;2023-01-04T04:51:13;1.48;;;0.82;;
34924;SDS011;21130;51.728;8.748;2023-01-04T04:53:41;1.77;;;0.90;;
34924;SDS011;21130;51.728;8.748;2023-01-04T04:56:08;3.80;;;0.95;;
34924;SDS011;21130;51.728;8.748;2023-01-04T04:58:36;2.05;;;0.90;;
34924;SDS011;21130;51.728;8.748;2023-01-04T05:01:04;2.15;;;0.88;;
34924;SDS011;21130;51.728;8.748;2023-01-04T05:03:30;1.73;;;1.00;;
34924;SDS011;21130;51.728;8.748;2023-01-04T05:05:57;0.98;;;0.68;;
34924;SDS011;21130;51.728;8.748;2023-01-04T05:08:24;2.10;;;0.70;;
34924;SDS011;21130;51.728;8.748;2023-01-04T05:10:50;0.60;;;0.60;;
34924;SDS011;21130;51.728;8.748;2023-01-04T05:13:17;1.08;;;0.60;;
34924;SDS011;21130;51.728;8.748;2023-01-04T05:15:43;1.33;;;0.85;;
34924;SDS011;21130;51.728;8.748;2023-01-04T05:18:13;1.30;;;0.63;;
34924;SDS011;21130;51.728;8.748;2023-01-04T05:20:41;1.08;;;0.82;;
34924;SDS011;21130;51.728;8.748;2023-01-04T05:23:07;0.65;;;0.50;;
34924;SDS011;21130;51.728;8.748;2023-01-04T05:25:36;0.98;;;0.80;;
34924;SDS011;21130;51.728;8.748;2023-01-04T05:28:02;0.63;;;0.60;;
34924;SDS011;21130;51.728;8.748;2023-01-04T05:30:29;1.95;;;0.65;;
34924;SDS011;21130;51.728;8.748;2023-01-04T05:33:14;1.65;;;0.60;;
34924;SDS011;21130;51.728;8.748;2023-01-04T05:35:41;1.92;;;0.70;;
34924;SDS011;21130;51.728;8.748;2023-01-04T05:38:07;1.05;;;0.50;;
34924;SDS011;21130;51.728;8.748;2023-01-04T05:40:33;1.10;;;0.95;;
34924;SDS011;21130;51.728;8.748;2023-01-04T05:43:00;1.08;;;0.68;;
34924;SDS011;21130;51.728;8.748;2023-01-04T05:45:26;0.65;;;0.50;;
34924;SDS011;21130;51.728;8.748;2023-01-04T05:47:55;1.88;;;0.50;;
34924;SDS011;21130;51.728;8.748;2023-01-04T05:50:23;1.75;;;0.50;;
34924;SDS011;21130;51.728;8.748;2023-01-04T05:52:51;2.38;;;0.68;;
34924;SDS011;21130;51.728;8.748;2023-01-04T05:55:18;0.40;;;0.40;;
34924;SDS011;21130;51.728;8.748;2023-01-04T05:57:44;2.47;;;0.60;;
34924;SDS011;21130;51.728;8.748;2023-01-04T06:00:11;1.98;;;0.50;;
34924;SDS011;21130;51.728;8.748;2023-01-04T06:02:39;0.68;;;0.50;;
34924;SDS011;21130;51.728;8.748;2023-01-04T06:05:06;0.45;;;0.40;;
34924;SDS011;21130;51.728;8.748;2023-01-04T06:07:35;3.22;;;0.70;;
34924;SDS011;21130;51.728;8.748;2023-01-04T06:10:03;0.63;;;0.57;;
34924;SDS011;21130;51.728;8.748;2023-01-04T06:12:30;0.63;;;0.40;;
34924;SDS011;21130;51.728;8.748;2023-01-04T06:14:56;0.63;;;0.50;;
34924;SDS011;21130;51.728;8.748;2023-01-04T06:17:23;0.50;;;0.50;;
34924;SDS011;21130;51.728;8.748;2023-01-04T06:19:49;1.13;;;0.57;;
34924;SDS011;21130;51.728;8.748;2023-01-04T06:22:16;0.88;;;0.60;;
34924;SDS011;21130;51.728;8.748;2023-01-04T06:24:43;0.75;;;0.50;;
34924;SDS011;21130;51.728;8.748;2023-01-04T06:27:10;0.50;;;0.50;;
34924;SDS011;21130;51.728;8.748;2023-01-04T06:29:36;0.70;;;0.40;;
34924;SDS011;21130;51.728;8.748;2023-01-04T06:32:02;0.95;;;0.70;;
34924;SDS011;21130;51.728;8.748;2023-01-04T06:34:29;0.52;;;0.50;;
34924;SDS011;21130;51.728;8.748;2023-01-04T06:36:55;0.98;;;0.60;;
34924;SDS011;21130;51.728;8.748;2023-01-04T06:39:22;1.05;;;0.60;;
34924;SDS011;21130;51.728;8.748;2023-01-04T06:41:50;2.17;;;0.60;;
34924;SDS011;21130;51.728;8.748;2023-01-04T06:44:16;1.70;;;0.50;;
34924;SDS011;21130;51.728;8.748;2023-01-04T06:46:44;0.98;;;0.45;;
34924;SDS011;21130;51.728;8.748;2023-01-04T06:49:10;0.77;;;0.60;;
34924;SDS011;21130;51.728;8.748;2023-01-04T06:51:38;0.68;;;0.50;;
34924;SDS011;21130;51.728;8.748;2023-01-04T06:54:05;0.65;;;0.52;;
34924;SDS011;21130;51.728;8.748;2023-01-04T06:56:31;0.75;;;0.43;;
34924;SDS011;21130;51.728;8.748;2023-01-04T06:58:59;0.40;;;0.40;;
34924;SDS011;21130;51.728;8.748;2023-01-04T07:01:25;1.10;;;0.55;;
34924;SDS011;21130;51.728;8.748;2023-01-04T07:03:52;0.70;;;0.70;;
34924;SDS011;21130;51.728;8.748;2023-01-04T07:06:18;0.90;;;0.50;;
34924;SDS011;21130;51.728;8.748;2023-01-04T07:08:44;0.80;;;0.57;;
34924;SDS011;21130;51.728;8.748;2023-01-04T07:11:11;0.40;;;0.40;;
34924;SDS011;21130;51.728;8.748;2023-01-04T07:13:37;0.90;;;0.52;;
34924;SDS011;21130;51.728;8.748;2023-01-04T07:16:05;0.45;;;0.45;;
34924;SDS011;21130;51.728;8.748;2023-01-04T07:18:32;0.95;;;0.50;;
34924;SDS011;21130;51.728;8.748;2023-01-04T07:20:58;0.57;;;0.40;;
34924;SDS011;21130;51.728;8.748;2023-01-04T07:23:25;0.63;;;0.50;;
34924;SDS011;21130;51.728;8.748;2023-01-04T07:25:51;0.82;;;0.40;;
34924;SDS011;21130;51.728;8.748;2023-01-04T07:28:17;0.60;;;0.40;;
34924;SDS011;21130;51.728;8.748;2023-01-04T07:30:58;2.97;;;0.45;;
34924;SDS011;21130;51.728;8.748;2023-01-04T07:33:30;0.40;;;0.40;;
34924;SDS011;21130;51.728;8.748;2023-01-04T07:36:00;0.82;;;0.50;;
34924;SDS011;21130;51.728;8.748;2023-01-04T07:38:27;0.98;;;0.47;;
34924;SDS011;21130;51.728;8.748;2023-01-04T07:40:54;0.65;;;0.50;;
34924;SDS011;21130;51.728;8.748;2023-01-04T07:43:21;0.40;;;0.40;;
34924;SDS011;21130;51.728;8.748;2023-01-04T07:45:47;1.40;;;0.50;;
34924;SDS011;21130;51.728;8.748;2023-01-04T07:48:13;0.40;;;0.40;;
34924;SDS011;21130;51.728;8.748;2023-01-04T07:50:43;0.55;;;0.40;;
34924;SDS011;21130;51.728;8.748;2023-01-04T07:53:10;0.35;;;0.32;;
34924;SDS011;21130;51.728;8.748;2023-01-04T07:55:38;0.57;;;0.50;;
34924;SDS011;21130;51.728;8.748;2023-01-04T07:58:04;0.50;;;0.50;;
34924;SDS011;21130;51.728;8.748;2023-01-04T08:00:31;0.82;;;0.40;;
34924;SDS011;21130;51.728;8.748;2023-01-04T08:02:57;0.75;;;0.50;;
34924;SDS011;21130;51.728;8.748;2023-01-04T08:05:23;0.80;;;0.40;;
34924;SDS011;21130;51.728;8.748;2023-01-04T08:07:51;0.40;;;0.40;;
34924;SDS011;21130;51.728;8.748;2023-01-04T08:10:17;0.43;;;0.40;;
34924;SDS011;21130;51.728;8.748;2023-01-04T08:12:44;1.35;;;0.43;;
34924;SDS011;21130;51.728;8.748;2023-01-04T08:15:10;0.70;;;0.50;;
34924;SDS011;21130;51.728;8.748;2023-01-04T08:17:38;0.45;;;0.45;;
34924;SDS011;21130;51.728;8.748;2023-01-04T08:20:05;0.57;;;0.40;;
34924;SDS011;21130;51.728;8.748;2023-01-04T08:22:32;0.40;;;0.40;;
34924;SDS011;21130;51.728;8.748;2023-01-04T08:25:00;0.95;;;0.60;;
34924;SDS011;21130;51.728;8.748;2023-01-04T08:27:26;0.40;;;0.40;;
34924;SDS011;21130;51.728;8.748;2023-01-04T08:29:52;0.68;;;0.40;;
34924;SDS011;21130;51.728;8.748;2023-01-04T08:32:19;1.00;;;0.43;;
34924;SDS011;21130;51.728;8.748;2023-01-04T08:34:45;0.68;;;0.45;;
34924;SDS011;21130;51.728;8.748;2023-01-04T08:37:12;0.40;;;0.40;;
34924;SDS011;21130;51.728;8.748;2023-01-04T08:39:38;1.52;;;0.50;;
34924;SDS011;21130;51.728;8.748;2023-01-04T08:42:06;0.35;;;0.35;;
34924;SDS011;21130;51.728;8.748;2023-01-04T08:44:32;0.75;;;0.40;;
34924;SDS011;21130;51.728;8.748;2023-01-04T08:46:59;3.08;;;0.43;;
34924;SDS011;21130;51.728;8.748;2023-01-04T08:49:26;0.80;;;0.43;;
34924;SDS011;21130;51.728;8.748;2023-01-04T08:51:52;0.50;;;0.50;;
34924;SDS011;21130;51.728;8.748;2023-01-04T08:54:19;0.73;;;0.40;;
34924;SDS011;21130;51.728;8.748;2023-01-04T08:56:47;0.68;;;0.65;;
34924;SDS011;21130;51.728;8.748;2023-01-04T08:59:14;0.40;;;0.40;;
34924;SDS011;21130;51.728;8.748;2023-01-04T09:01:41;2.42;;;0.70;;
34924;SDS011;21130;51.728;8.748;2023-01-04T09:04:07;0.73;;;0.68;;
34924;SDS011;21130;51.728;8.748;2023-01-04T09:06:35;1.15;;;0.50;;
34924;SDS011;21130;51.728;8.748;2023-01-04T09:09:01;0.45;;;0.45;;
34924;SDS011;21130;51.728;8.748;2023-01-04T09:11:28;2.42;;;0.60;;
34924;SDS011;21130;51.728;8.748;2023-01-04T09:13:55;0.32;;;0.32;;
34924;SDS011;21130;51.728;8.748;2023-01-04T09:16:23;0.45;;;0.45;;
34924;SDS011;21130;51.728;8.748;2023-01-04T09:18:50;0.50;;;0.30;;
34924;SDS011;21130;51.728;8.748;2023-01-04T09:21:17;0.43;;;0.40;;
34924;SDS011;21130;51.728;8.748;2023-01-04T09:23:45;0.68;;;0.40;;
34924;SDS011;21130;51.728;8.748;2023-01-04T09:26:13;0.52;;;0.40;;
34924;SDS011;21130;51.728;8.748;2023-01-04T09:28:40;0.30;;;0.30;;
34924;SDS011;21130;51.728;8.748;2023-01-04T09:31:08;0.25;;;0.22;;
34924;SDS011;21130;51.728;8.748;2023-01-04T09:33:37;0.35;;;0.35;;
34924;SDS011;21130;51.728;8.748;2023-01-04T09:36:04;0.60;;;0.40;;
34924;SDS011;21130;51.728;8.748;2023-01-04T09:38:32;0.20;;;0.20;;
34924;SDS011;21130;51.728;8.748;2023-01-04T09:41:01;0.35;;;0.30;;
34924;SDS011;21130;51.728;8.748;2023-01-04T09:43:34;0.30;;;0.30;;
34924;SDS011;21130;51.728;8.748;2023-01-04T09:46:08;0.52;;;0.43;;
34924;SDS011;21130;51.728;8.748;2023-01-04T09:48:41;0.60;;;0.43;;
34924;SDS011;21130;51.728;8.748;2023-01-04T09:51:11;0.82;;;0.40;;
34924;SDS011;21130;51.728;8.748;2023-01-04T09:53:45;0.40;;;0.40;;
34924;SDS011;21130;51.728;8.748;2023-01-04T09:56:16;0.28;;;0.28;;
34924;SDS011;21130;51.728;8.748;2023-01-04T09:58:49;0.40;;;0.40;;
34924;SDS011;21130;51.728;8.748;2023-01-04T10:01:19;0.55;;;0.40;;
34924;SDS011;21130;51.728;8.748;2023-01-04T10:03:52;1.33;;;0.57;;
34924;SDS011;21130;51.728;8.748;2023-01-04T10:06:23;0.32;;;0.32;;
34924;SDS011;21130;51.728;8.748;2023-01-04T10:08:49;0.30;;;0.30;;
34924;SDS011;21130;51.728;8.748;2023-01-04T10:11:20;0.40;;;0.40;;
34924;SDS011;21130;51.728;8.748;2023-01-04T10:13:59;0.68;;;0.50;;
34924;SDS011;21130;51.728;8.748;2023-01-04T10:16:39;0.32;;;0.30;;
34924;SDS011;21130;51.728;8.748;2023-01-04T10:19:19;0.57;;;0.40;;
34924;SDS011;21130;51.728;8.748;2023-01-04T10:21:57;0.40;;;0.40;;
34924;SDS011;21130;51.728;8.748;2023-01-04T10:24:36;0.43;;;0.43;;
34924;SDS011;21130;51.728;8.748;2023-01-04T10:27:11;0.38;;;0.38;;
34924;SDS011;21130;51.728;8.748;2023-01-04T10:30:00;1.95;;;0.30;;
34924;SDS011;21130;51.728;8.748;2023-01-04T10:32:41;0.68;;;0.38;;
34924;SDS011;21130;51.728;8.748;2023-01-04T10:35:17;0.52;;;0.35;;
34924;SDS011;21130;51.728;8.748;2023-01-04T10:37:45;0.30;;;0.30;;
34924;SDS011;21130;51.728;8.748;2023-01-04T10:40:15;0.32;;;0.32;;
34924;SDS011;21130;51.728;8.748;2023-01-04T10:42:44;0.57;;;0.38;;
34924;SDS011;21130;51.728;8.748;2023-01-04T10:45:19;0.30;;;0.30;;
34924;SDS011;21130;51.728;8.748;2023-01-04T10:47:55;0.30;;;0.30;;
34924;SDS011;21130;51.728;8.748;2023-01-04T10:50:32;0.47;;;0.40;;
34924;SDS011;21130;51.728;8.748;2023-01-04T10:53:02;0.32;;;0.32;;
34924;SDS011;21130;51.728;8.748;2023-01-04T10:55:35;0.35;;;0.35;;
34924;SDS011;21130;51.728;8.748;2023-01-04T10:58:08;0.40;;;0.40;;
34924;SDS011;21130;51.728;8.748;2023-01-04T11:00:43;0.30;;;0.30;;
34924;SDS011;21130;51.728;8.748;2023-01-04T11:03:12;1.02;;;0.30;;
34924;SDS011;21130;51.728;8.748;2023-01-04T11:05:46;1.48;;;0.45;;
34924;SDS011;21130;51.728;8.748;2023-01-04T11:08:16;0.40;;;0.40;;
34924;SDS011;21130;51.728;8.748;2023-01-04T11:10:48;1.17;;;0.40;;
34924;SDS011;21130;51.728;8.748;2023-01-04T11:13:18;0.95;;;0.30;;
34924;SDS011;21130;51.728;8.748;2023-01-04T11:15:44;0.50;;;0.30;;
34924;SDS011;21130;51.728;8.748;2023-01-04T11:18:11;0.28;;;0.28;;
34924;SDS011;21130;51.728;8.748;2023-01-04T11:20:39;0.40;;;0.40;;
34924;SDS011;21130;51.728;8.748;2023-01-04T11:23:08;0.55;;;0.25;;
34924;SDS011;21130;51.728;8.748;2023-01-04T11:25:40;1.70;;;0.32;;
34924;SDS011;21130;51.728;8.748;2023-01-04T11:28:12;0.40;;;0.30;;
34924;SDS011;21130;51.728;8.748;2023-01-04T11:30:44;0.40;;;0.32;;
34924;SDS011;21130;51.728;8.748;2023-01-04T11:33:17;0.30;;;0.30;;
34924;SDS011;21130;51.728;8.748;2023-01-04T11:35:46;0.63;;;0.23;;
34924;SDS011;21130;51.728;8.748;2023-01-04T11:38:16;0.47;;;0.30;;
34924;SDS011;21130;51.728;8.748;2023-01-04T11:40:53;0.30;;;0.30;;
34924;SDS011;21130;51.728;8.748;2023-01-04T11:43:22;0.35;;;0.35;;
34924;SDS011;21130;51.728;8.748;2023-01-04T11:49:08;0.55;;;0.20;;
34924;SDS011;21130;51.728;8.748;2023-01-04T11:51:44;0.35;;;0.35;;
34924;SDS011;21130;51.728;8.748;2023-01-04T11:54:18;0.40;;;0.40;;
34924;SDS011;21130;51.728;8.748;2023-01-04T11:56:58;0.30;;;0.30;;
34924;SDS011;21130;51.728;8.748;2023-01-04T11:59:26;0.30;;;0.30;;
34924;SDS011;21130;51.728;8.748;2023-01-04T12:02:14;0.30;;;0.30;;
34924;SDS011;21130;51.728;8.748;2023-01-04T12:04:44;0.68;;;0.40;;
34924;SDS011;21130;51.728;8.748;2023-01-04T12:07:13;0.30;;;0.30;;
34924;SDS011;21130;51.728;8.748;2023-01-04T12:09:51;0.40;;;0.40;;
34924;SDS011;21130;51.728;8.748;2023-01-04T12:12:18;0.55;;;0.50;;
34924;SDS011;21130;51.728;8.748;2023-01-04T12:14:46;0.68;;;0.60;;
34924;SDS011;21130;51.728;8.748;2023-01-04T12:17:15;0.50;;;0.45;;
34924;SDS011;21130;51.728;8.748;2023-01-04T12:19:45;0.40;;;0.40;;
34924;SDS011;21130;51.728;8.748;2023-01-04T12:22:16;0.32;;;0.32;;
34924;SDS011;21130;51.728;8.748;2023-01-04T12:24:47;0.70;;;0.45;;
34924;SDS011;21130;51.728;8.748;2023-01-04T12:27:16;0.30;;;0.30;;
34924;SDS011;21130;51.728;8.748;2023-01-04T12:29:44;0.60;;;0.40;;
34924;SDS011;21130;51.728;8.748;2023-01-04T12:32:39;0.60;;;0.40;;
34924;SDS011;21130;51.728;8.748;2023-01-04T12:47:37;1.45;;;0.30;;
34924;SDS011;21130;51.728;8.748;2023-01-04T12:50:22;0.73;;;0.40;;
34924;SDS011;21130;51.728;8.748;2023-01-04T12:52:51;0.40;;;0.30;;
34924;SDS011;21130;51.728;8.748;2023-01-04T12:58:41;1.02;;;0.52;;
34924;SDS011;21130;51.728;8.748;2023-01-04T13:01:25;0.30;;;0.30;;
34924;SDS011;21130;51.728;8.748;2023-01-04T13:03:56;0.50;;;0.40;;
34924;SDS011;21130;51.728;8.748;2023-01-04T13:06:25;0.30;;;0.30;;
34924;SDS011;21130;51.728;8.748;2023-01-04T13:08:54;0.20;;;0.20;;
34924;SDS011;21130;51.728;8.748;2023-01-04T13:11:32;1.70;;;0.30;;
34924;SDS011;21130;51.728;8.748;2023-01-04T13:14:16;0.55;;;0.30;;
34924;SDS011;21130;51.728;8.748;2023-01-04T13:16:55;0.63;;;0.30;;
34924;SDS011;21130;51.728;8.748;2023-01-04T13:20:46;0.43;;;0.40;;
34924;SDS011;21130;51.728;8.748;2023-01-04T13:23:13;0.70;;;0.70;;
34924;SDS011;21130;51.728;8.748;2023-01-04T13:25:39;0.95;;;0.52;;
34924;SDS011;21130;51.728;8.748;2023-01-04T13:28:14;2.60;;;0.30;;
34924;SDS011;21130;51.728;8.748;2023-01-04T13:30:42;0.63;;;0.47;;
34924;SDS011;21130;51.728;8.748;2023-01-04T13:33:13;0.40;;;0.40;;
34924;SDS011;21130;51.728;8.748;2023-01-04T13:35:42;0.65;;;0.22;;
34924;SDS011;21130;51.728;8.748;2023-01-04T13:38:12;1.17;;;0.50;;
34924;SDS011;21130;51.728;8.748;2023-01-04T13:40:42;0.57;;;0.40;;
34924;SDS011;21130;51.728;8.748;2023-01-04T13:43:12;1.45;;;0.50;;
34924;SDS011;21130;51.728;8.748;2023-01-04T13:45:58;1.30;;;0.35;;
34924;SDS011;21130;51.728;8.748;2023-01-04T13:48:37;0.40;;;0.30;;
34924;SDS011;21130;51.728;8.748;2023-01-04T13:51:11;0.25;;;0.25;;
34924;SDS011;21130;51.728;8.748;2023-01-04T13:53:41;0.30;;;0.30;;
34924;SDS011;21130;51.728;8.748;2023-01-04T13:56:17;0.82;;;0.40;;
34924;SDS011;21130;51.728;8.748;2023-01-04T13:58:45;0.65;;;0.30;;
34924;SDS011;21130;51.728;8.748;2023-01-04T14:01:12;0.80;;;0.40;;
34924;SDS011;21130;51.728;8.748;2023-01-04T14:03:42;1.20;;;0.65;;
34924;SDS011;21130;51.728;8.748;2023-01-04T14:06:16;0.30;;;0.30;;
34924;SDS011;21130;51.728;8.748;2023-01-04T14:08:52;0.47;;;0.30;;
34924;SDS011;21130;51.728;8.748;2023-01-04T14:11:24;0.43;;;0.40;;
34924;SDS011;21130;51.728;8.748;2023-01-04T14:14:18;0.63;;;0.40;;
34924;SDS011;21130;51.728;8.748;2023-01-04T14:16:48;0.50;;;0.50;;
34924;SDS011;21130;51.728;8.748;2023-01-04T14:19:26;1.08;;;0.40;;
34924;SDS011;21130;51.728;8.748;2023-01-04T14:22:17;0.40;;;0.40;;
34924;SDS011;21130;51.728;8.748;2023-01-04T14:24:46;0.40;;;0.40;;
34924;SDS011;21130;51.728;8.748;2023-01-04T14:27:28;0.30;;;0.30;;
34924;SDS011;21130;51.728;8.748;2023-01-04T14:29:56;0.40;;;0.40;;
34924;SDS011;21130;51.728;8.748;2023-01-04T14:32:22;0.30;;;0.30;;
34924;SDS011;21130;51.728;8.748;2023-01-04T14:34:49;0.30;;;0.30;;
34924;SDS011;21130;51.728;8.748;2023-01-04T14:37:16;0.38;;;0.30;;
34924;SDS011;21130;51.728;8.748;2023-01-04T14:39:43;0.30;;;0.30;;
34924;SDS011;21130;51.728;8.748;2023-01-04T14:42:22;0.65;;;0.38;;
34924;SDS011;21130;51.728;8.748;2023-01-04T14:44:50;0.68;;;0.40;;
34924;SDS011;21130;51.728;8.748;2023-01-04T14:47:17;0.65;;;0.43;;
34924;SDS011;21130;51.728;8.748;2023-01-04T14:49:43;0.70;;;0.40;;
34924;SDS011;21130;51.728;8.748;2023-01-04T14:52:10;0.30;;;0.30;;
34924;SDS011;21130;51.728;8.748;2023-01-04T14:54:44;0.35;;;0.35;;
34924;SDS011;21130;51.728;8.748;2023-01-04T14:57:11;0.40;;;0.40;;
34924;SDS011;21130;51.728;8.748;2023-01-04T14:59:39;1.75;;;0.40;;
34924;SDS011;21130;51.728;8.748;2023-01-04T15:02:08;1.60;;;0.50;;
34924;SDS011;21130;51.728;8.748;2023-01-04T15:04:35;0.40;;;0.40;;
34924;SDS011;21130;51.728;8.748;2023-01-04T15:07:01;0.47;;;0.47;;
34924;SDS011;21130;51.728;8.748;2023-01-04T15:09:28;0.60;;;0.60;;
34924;SDS011;21130;51.728;8.748;2023-01-04T15:11:55;0.50;;;0.50;;
34924;SDS011;21130;51.728;8.748;2023-01-04T15:14:22;0.50;;;0.50;;
34924;SDS011;21130;51.728;8.748;2023-01-04T15:16:50;1.15;;;0.60;;
34924;SDS011;21130;51.728;8.748;2023-01-04T15:19:17;1.92;;;0.88;;
34924;SDS011;21130;51.728;8.748;2023-01-04T15:21:44;1.58;;;0.70;;
34924;SDS011;21130;51.728;8.748;2023-01-04T15:24:10;1.15;;;1.05;;
34924;SDS011;21130;51.728;8.748;2023-01-04T15:26:37;1.00;;;1.00;;
34924;SDS011;21130;51.728;8.748;2023-01-04T15:29:04;1.35;;;1.05;;
34924;SDS011;21130;51.728;8.748;2023-01-04T15:31:30;1.38;;;1.27;;